sensor_id;sensor_type;location;lat;lon;timestamp;pressure;altitude;pressure_sealevel;temperature;humidity
13709;BME280;54933;51.908;7.730;2023-02-13T00:01:29;103124.13;;;20.54;68.28
13709;BME280;54933;51.908;7.730;2023-02-13T00:03:55;103118.72;;;20.54;68.57
13709;BME280;54933;51.908;7.730;2023-02-13T00:06:20;103122.25;;;20.54;68.50
13709;BME280;54933;51.908;7.730;2023-02-13T00:08:46;103117.69;;;20.55;68.40
13709;BME280;54933;51.908;7.730;2023-02-13T00:11:11;103121.25;;;20.55;68.21
13709;BME280;54933;51.908;7.730;2023-02-13T00:13:36;103110.47;;;20.55;68.33
13709;BME280;54933;51.908;7.730;2023-02-13T00:16:03;103111.97;;;20.58;68.41
13709;BME280;54933;51.908;7.730;2023-02-13T00:18:32;103116.56;;;20.57;68.22
13709;BME280;54933;51.908;7.730;2023-02-13T00:21:00;103116.56;;;20.57;68.36
13709;BME280;54933;51.908;7.730;2023-02-13T00:23:28;103116.56;;;20.57;68.35
13709;BME280;54933;51.908;7.730;2023-02-13T00:25:54;103110.13;;;20.58;68.24
13709;BME280;54933;51.908;7.730;2023-02-13T00:28:19;103103.88;;;20.58;68.14
13709;BME280;54933;51.908;7.730;2023-02-13T00:30:44;103105.75;;;20.57;68.12
13709;BME280;54933;51.908;7.730;2023-02-13T00:33:09;103105.75;;;20.57;68.21
13709;BME280;54933;51.908;7.730;2023-02-13T00:35:35;103100.34;;;20.57;68.15
13709;BME280;54933;51.908;7.730;2023-02-13T00:38:00;103097.66;;;20.57;68.07
13709;BME280;54933;51.908;7.730;2023-02-13T00:40:25;103102.03;;;20.58;68.64
13709;BME280;54933;51.908;7.730;2023-02-13T00:42:51;103103.06;;;20.57;68.08
13709;BME280;54933;51.908;7.730;2023-02-13T00:45:16;103100.34;;;20.57;67.96
13709;BME280;54933;51.908;7.730;2023-02-13T00:47:41;103100.34;;;20.57;68.25
13709;BME280;54933;51.908;7.730;2023-02-13T00:50:07;103093.22;;;20.56;67.94
13709;BME280;54933;51.908;7.730;2023-02-13T00:52:32;103098.09;;;20.53;68.03
13709;BME280;54933;51.908;7.730;2023-02-13T00:54:57;103104.34;;;20.53;68.02
13709;BME280;54933;51.908;7.730;2023-02-13T00:57:22;103089.16;;;20.52;68.03
13709;BME280;54933;51.908;7.730;2023-02-13T00:59:48;103098.41;;;20.50;68.30
13709;BME280;54933;51.908;7.730;2023-02-13T01:02:13;103100.25;;;20.49;68.08
13709;BME280;54933;51.908;7.730;2023-02-13T01:04:39;103108.34;;;20.49;68.42
13709;BME280;54933;51.908;7.730;2023-02-13T01:07:04;103098.72;;;20.47;68.03
13709;BME280;54933;51.908;7.730;2023-02-13T01:09:30;103100.19;;;20.41;67.53
13709;BME280;54933;51.908;7.730;2023-02-13T01:11:55;103105.59;;;20.41;67.70
13709;BME280;54933;51.908;7.730;2023-02-13T01:14:20;103106.44;;;20.42;67.77
13709;BME280;54933;51.908;7.730;2023-02-13T01:16:45;103103.91;;;20.40;67.77
13709;BME280;54933;51.908;7.730;2023-02-13T01:19:11;103102.22;;;20.39;67.77
13709;BME280;54933;51.908;7.730;2023-02-13T01:21:36;103100.84;;;20.35;67.65
13709;BME280;54933;51.908;7.730;2023-02-13T01:24:03;103106.53;;;20.32;67.59
13709;BME280;54933;51.908;7.730;2023-02-13T01:26:29;103099.47;;;20.31;67.40
13709;BME280;54933;51.908;7.730;2023-02-13T01:28:54;103099.31;;;20.33;67.47
13709;BME280;54933;51.908;7.730;2023-02-13T01:31:20;103101.16;;;20.32;67.50
13709;BME280;54933;51.908;7.730;2023-02-13T01:33:45;103095.75;;;20.32;67.81
13709;BME280;54933;51.908;7.730;2023-02-13T01:36:11;103096.59;;;20.33;67.81
13709;BME280;54933;51.908;7.730;2023-02-13T01:38:38;103092.03;;;20.33;67.99
13709;BME280;54933;51.908;7.730;2023-02-13T01:41:04;103093.75;;;20.34;67.99
13709;BME280;54933;51.908;7.730;2023-02-13T01:43:43;103088.34;;;20.34;68.04
13709;BME280;54933;51.908;7.730;2023-02-13T01:46:09;103084.63;;;20.35;68.08
13709;BME280;54933;51.908;7.730;2023-02-13T01:48:35;103083.47;;;20.38;68.40
13709;BME280;54933;51.908;7.730;2023-02-13T01:51:04;103084.31;;;20.38;68.40
13709;BME280;54933;51.908;7.730;2023-02-13T01:53:38;103079.75;;;20.39;68.51
13709;BME280;54933;51.908;7.730;2023-02-13T01:56:17;103081.28;;;20.41;68.82
13709;BME280;54933;51.908;7.730;2023-02-13T01:58:47;103081.28;;;20.41;68.50
13709;BME280;54933;51.908;7.730;2023-02-13T02:01:15;103089.09;;;20.44;68.60
13709;BME280;54933;51.908;7.730;2023-02-13T02:03:45;103078.31;;;20.44;68.76
13709;BME280;54933;51.908;7.730;2023-02-13T02:06:17;103080.00;;;20.45;68.73
13709;BME280;54933;51.908;7.730;2023-02-13T02:08:46;103078.97;;;20.46;68.47
13709;BME280;54933;51.908;7.730;2023-02-13T02:11:27;103070.88;;;20.46;68.67
13709;BME280;54933;51.908;7.730;2023-02-13T02:13:56;103077.13;;;20.47;68.66
13709;BME280;54933;51.908;7.730;2023-02-13T02:16:22;103067.19;;;20.47;68.65
13709;BME280;54933;51.908;7.730;2023-02-13T02:18:47;103068.88;;;20.48;68.55
13709;BME280;54933;51.908;7.730;2023-02-13T02:21:42;103059.91;;;20.48;68.48
13709;BME280;54933;51.908;7.730;2023-02-13T02:24:24;103056.38;;;20.47;68.52
13709;BME280;54933;51.908;7.730;2023-02-13T02:27:19;103056.38;;;20.47;68.32
13709;BME280;54933;51.908;7.730;2023-02-13T02:30:35;103052.66;;;20.48;68.44
13709;BME280;54933;51.908;7.730;2023-02-13T02:33:27;103059.09;;;20.47;68.32
13709;BME280;54933;51.908;7.730;2023-02-13T02:36:10;103050.97;;;20.47;68.43
13709;BME280;54933;51.908;7.730;2023-02-13T02:39:29;103056.38;;;20.47;68.37
13709;BME280;54933;51.908;7.730;2023-02-13T02:41:56;103050.97;;;20.47;68.21
13709;BME280;54933;51.908;7.730;2023-02-13T02:44:35;103056.38;;;20.47;68.19
13709;BME280;54933;51.908;7.730;2023-02-13T02:47:11;103052.81;;;20.47;68.18
13709;BME280;54933;51.908;7.730;2023-02-13T02:50:27;103054.66;;;20.46;68.04
13709;BME280;54933;51.908;7.730;2023-02-13T02:53:25;103050.13;;;20.47;68.33
13709;BME280;54933;51.908;7.730;2023-02-13T02:56:01;103055.53;;;20.47;67.92
13709;BME280;54933;51.908;7.730;2023-02-13T02:58:59;103059.09;;;20.47;68.25
13709;BME280;54933;51.908;7.730;2023-02-13T03:01:45;103053.69;;;20.47;68.11
13709;BME280;54933;51.908;7.730;2023-02-13T03:04:45;103049.25;;;20.46;68.21
13709;BME280;54933;51.908;7.730;2023-02-13T03:07:31;103046.56;;;20.46;68.32
13709;BME280;54933;51.908;7.730;2023-02-13T03:09:59;103043.88;;;20.46;68.41
13709;BME280;54933;51.908;7.730;2023-02-13T03:15:47;103042.19;;;20.45;68.19
13709;BME280;54933;51.908;7.730;2023-02-13T03:18:36;103045.91;;;20.44;68.00
13709;BME280;54933;51.908;7.730;2023-02-13T03:22:25;103045.91;;;20.44;68.08
13709;BME280;54933;51.908;7.730;2023-02-13T03:25:12;103048.44;;;20.46;68.12
13709;BME280;54933;51.908;7.730;2023-02-13T03:27:56;103050.28;;;20.45;68.21
13709;BME280;54933;51.908;7.730;2023-02-13T03:33:43;103053.13;;;20.44;68.26
13709;BME280;54933;51.908;7.730;2023-02-13T03:36:33;103043.31;;;20.43;68.04
13709;BME280;54933;51.908;7.730;2023-02-13T03:39:34;103047.59;;;20.45;68.12
13709;BME280;54933;51.908;7.730;2023-02-13T03:42:06;103046.88;;;20.43;68.26
13709;BME280;54933;51.908;7.730;2023-02-13T03:44:42;103047.91;;;20.42;68.05
13709;BME280;54933;51.908;7.730;2023-02-13T03:47:12;103049.59;;;20.43;68.06
13709;BME280;54933;51.908;7.730;2023-02-13T03:49:46;103051.31;;;20.44;68.21
13709;BME280;54933;51.908;7.730;2023-02-13T03:52:43;103049.59;;;20.43;67.85
13709;BME280;54933;51.908;7.730;2023-02-13T03:55:18;103053.31;;;20.42;68.00
13709;BME280;54933;51.908;7.730;2023-02-13T03:58:07;103044.19;;;20.43;68.05
13709;BME280;54933;51.908;7.730;2023-02-13T04:00:55;103048.59;;;20.44;68.06
13709;BME280;54933;51.908;7.730;2023-02-13T04:06:01;103057.53;;;20.45;68.08
13709;BME280;54933;51.908;7.730;2023-02-13T04:08:28;103058.38;;;20.45;68.08
13709;BME280;54933;51.908;7.730;2023-02-13T04:11:01;103059.41;;;20.44;68.07
13709;BME280;54933;51.908;7.730;2023-02-13T04:13:51;103056.69;;;20.44;68.01
13709;BME280;54933;51.908;7.730;2023-02-13T04:16:40;103060.22;;;20.45;67.90
13709;BME280;54933;51.908;7.730;2023-02-13T04:19:07;103046.88;;;20.43;67.98
13709;BME280;54933;51.908;7.730;2023-02-13T04:21:35;103052.97;;;20.45;67.99
13709;BME280;54933;51.908;7.730;2023-02-13T04:24:02;103052.28;;;20.43;67.96
13709;BME280;54933;51.908;7.730;2023-02-13T04:26:33;103058.38;;;20.45;68.12
13709;BME280;54933;51.908;7.730;2023-02-13T04:28:59;103051.31;;;20.44;67.98
13709;BME280;54933;51.908;7.730;2023-02-13T04:31:25;103049.59;;;20.43;67.96
13709;BME280;54933;51.908;7.730;2023-02-13T04:33:50;103051.44;;;20.43;67.87
13709;BME280;54933;51.908;7.730;2023-02-13T04:36:15;103050.44;;;20.44;67.95
13709;BME280;54933;51.908;7.730;2023-02-13T04:38:40;103052.13;;;20.45;68.02
13709;BME280;54933;51.908;7.730;2023-02-13T04:41:06;103064.66;;;20.46;67.88
13709;BME280;54933;51.908;7.730;2023-02-13T04:43:31;103058.69;;;20.42;68.06
13709;BME280;54933;51.908;7.730;2023-02-13T04:45:56;103057.84;;;20.42;67.96
13709;BME280;54933;51.908;7.730;2023-02-13T04:48:21;103058.69;;;20.42;67.99
13709;BME280;54933;51.908;7.730;2023-02-13T04:50:47;103064.09;;;20.42;68.24
13709;BME280;54933;51.908;7.730;2023-02-13T04:53:12;103051.59;;;20.41;68.28
13709;BME280;54933;51.908;7.730;2023-02-13T04:55:37;103061.41;;;20.42;68.28
13709;BME280;54933;51.908;7.730;2023-02-13T04:58:03;103052.44;;;20.42;68.38
13709;BME280;54933;51.908;7.730;2023-02-13T05:00:28;103055.84;;;20.44;68.36
13709;BME280;54933;51.908;7.730;2023-02-13T05:02:59;103045.03;;;20.44;68.46
13709;BME280;54933;51.908;7.730;2023-02-13T05:05:24;103054.97;;;20.43;68.36
13709;BME280;54933;51.908;7.730;2023-02-13T05:07:50;103054.81;;;20.45;68.14
13709;BME280;54933;51.908;7.730;2023-02-13T05:10:15;103048.44;;;20.46;68.23
13709;BME280;54933;51.908;7.730;2023-02-13T05:12:40;103043.31;;;20.43;68.31
13709;BME280;54933;51.908;7.730;2023-02-13T05:15:06;103049.59;;;20.43;68.36
13709;BME280;54933;51.908;7.730;2023-02-13T05:17:31;103047.59;;;20.45;68.26
13709;BME280;54933;51.908;7.730;2023-02-13T05:19:57;103050.28;;;20.45;68.17
13709;BME280;54933;51.908;7.730;2023-02-13T05:22:23;103051.31;;;20.44;68.32
13709;BME280;54933;51.908;7.730;2023-02-13T05:25:06;103045.91;;;20.44;68.31
13709;BME280;54933;51.908;7.730;2023-02-13T05:27:32;103046.19;;;20.41;68.28
13709;BME280;54933;51.908;7.730;2023-02-13T05:29:57;103050.59;;;20.42;68.00
13709;BME280;54933;51.908;7.730;2023-02-13T05:32:22;103053.31;;;20.42;68.35
13709;BME280;54933;51.908;7.730;2023-02-13T05:34:47;103058.69;;;20.42;68.27
13709;BME280;54933;51.908;7.730;2023-02-13T05:37:15;103057.00;;;20.41;68.22
13709;BME280;54933;51.908;7.730;2023-02-13T05:39:41;103057.84;;;20.42;68.48
13709;BME280;54933;51.908;7.730;2023-02-13T05:42:06;103046.19;;;20.41;68.36
13709;BME280;54933;51.908;7.730;2023-02-13T05:44:31;103059.19;;;20.38;67.92
13709;BME280;54933;51.908;7.730;2023-02-13T05:46:57;103053.56;;;20.31;67.06
13709;BME280;54933;51.908;7.730;2023-02-13T05:49:22;103056.88;;;20.25;67.00
13709;BME280;54933;51.908;7.730;2023-02-13T05:51:48;103052.31;;;20.26;66.99
13709;BME280;54933;51.908;7.730;2023-02-13T05:54:16;103054.63;;;20.20;66.78
13709;BME280;54933;51.908;7.730;2023-02-13T05:56:41;103061.06;;;20.19;66.50
13709;BME280;54933;51.908;7.730;2023-02-13T05:59:07;103057.50;;;20.19;66.65
13709;BME280;54933;51.908;7.730;2023-02-13T06:01:32;103059.19;;;20.20;65.95
13709;BME280;54933;51.908;7.730;2023-02-13T06:03:57;103058.03;;;20.23;66.59
13709;BME280;54933;51.908;7.730;2023-02-13T06:06:23;103060.59;;;20.24;66.78
13709;BME280;54933;51.908;7.730;2023-02-13T06:08:49;103051.63;;;20.23;66.97
13709;BME280;54933;51.908;7.730;2023-02-13T06:11:14;103053.47;;;20.23;67.14
13709;BME280;54933;51.908;7.730;2023-02-13T06:13:40;103056.47;;;20.20;67.49
13709;BME280;54933;51.908;7.730;2023-02-13T06:16:06;103062.56;;;20.22;68.14
13709;BME280;54933;51.908;7.730;2023-02-13T06:18:32;103062.56;;;20.22;68.45
13709;BME280;54933;51.908;7.730;2023-02-13T06:20:57;103060.91;;;20.21;68.83
13709;BME280;54933;51.908;7.730;2023-02-13T06:23:23;103051.69;;;20.14;69.34
13709;BME280;54933;51.908;7.730;2023-02-13T06:25:49;103063.78;;;20.10;69.19
13709;BME280;54933;51.908;7.730;2023-02-13T06:28:14;103056.38;;;20.12;69.71
13709;BME280;54933;51.908;7.730;2023-02-13T06:30:39;103069.88;;;20.12;69.54
13709;BME280;54933;51.908;7.730;2023-02-13T06:33:04;103073.28;;;20.14;69.84
13709;BME280;54933;51.908;7.730;2023-02-13T06:35:30;103068.28;;;20.19;70.06
13709;BME280;54933;51.908;7.730;2023-02-13T06:37:55;103080.63;;;20.21;70.08
13709;BME280;54933;51.908;7.730;2023-02-13T06:40:20;103083.16;;;20.23;70.38
13709;BME280;54933;51.908;7.730;2023-02-13T06:42:45;103079.47;;;20.24;70.64
13709;BME280;54933;51.908;7.730;2023-02-13T06:45:11;103083.03;;;20.25;70.54
13709;BME280;54933;51.908;7.730;2023-02-13T06:47:45;103082.88;;;20.26;70.47
13709;BME280;54933;51.908;7.730;2023-02-13T06:50:12;103091.47;;;20.30;70.60
13709;BME280;54933;51.908;7.730;2023-02-13T06:52:38;103084.25;;;20.30;70.55
13709;BME280;54933;51.908;7.730;2023-02-13T06:55:03;103085.09;;;20.31;71.34
13709;BME280;54933;51.908;7.730;2023-02-13T06:57:29;103084.25;;;20.30;70.83
13709;BME280;54933;51.908;7.730;2023-02-13T06:59:58;103094.88;;;20.32;70.81
13709;BME280;54933;51.908;7.730;2023-02-13T07:02:23;103089.47;;;20.32;70.78
13709;BME280;54933;51.908;7.730;2023-02-13T07:04:48;103095.91;;;20.31;70.81
13709;BME280;54933;51.908;7.730;2023-02-13T07:07:13;103096.88;;;20.30;70.56
13709;BME280;54933;51.908;7.730;2023-02-13T07:09:39;103106.16;;;20.27;70.31
13709;BME280;54933;51.908;7.730;2023-02-13T07:12:05;103100.22;;;20.23;69.54
13709;BME280;54933;51.908;7.730;2023-02-13T07:14:30;103091.72;;;19.56;66.61
13709;BME280;54933;51.908;7.730;2023-02-13T07:16:56;103113.19;;;19.12;63.97
13709;BME280;54933;51.908;7.730;2023-02-13T07:19:22;103118.16;;;19.53;63.43
13709;BME280;54933;51.908;7.730;2023-02-13T07:21:47;103115.66;;;19.69;64.12
13709;BME280;54933;51.908;7.730;2023-02-13T07:24:12;103110.03;;;19.80;64.56
13709;BME280;54933;51.908;7.730;2023-02-13T07:26:37;103111.97;;;19.87;64.60
13709;BME280;54933;51.908;7.730;2023-02-13T07:29:03;103105.13;;;19.93;64.72
13709;BME280;54933;51.908;7.730;2023-02-13T07:31:32;103103.69;;;19.98;64.94
13709;BME280;54933;51.908;7.730;2023-02-13T07:33:57;103105.91;;;20.03;65.34
13709;BME280;54933;51.908;7.730;2023-02-13T07:36:22;103104.72;;;20.05;65.71
13709;BME280;54933;51.908;7.730;2023-02-13T07:38:48;103115.22;;;20.08;65.57
13709;BME280;54933;51.908;7.730;2023-02-13T07:41:13;103113.06;;;20.12;66.04
13709;BME280;54933;51.908;7.730;2023-02-13T07:43:38;103116.63;;;20.12;66.11
13709;BME280;54933;51.908;7.730;2023-02-13T07:46:04;103110.09;;;20.15;66.35
13709;BME280;54933;51.908;7.730;2023-02-13T07:48:29;103113.47;;;20.17;66.45
13709;BME280;54933;51.908;7.730;2023-02-13T07:50:59;103116.88;;;20.19;66.77
13709;BME280;54933;51.908;7.730;2023-02-13T07:53:24;103123.16;;;20.19;67.08
13709;BME280;54933;51.908;7.730;2023-02-13T07:55:50;103121.97;;;20.22;66.78
13709;BME280;54933;51.908;7.730;2023-02-13T07:58:15;103125.38;;;20.24;67.01
13709;BME280;54933;51.908;7.730;2023-02-13T08:00:40;103124.34;;;20.25;67.09
13709;BME280;54933;51.908;7.730;2023-02-13T08:03:06;103123.38;;;20.26;67.19
13709;BME280;54933;51.908;7.730;2023-02-13T08:05:32;103125.06;;;20.27;67.13
13709;BME280;54933;51.908;7.730;2023-02-13T08:07:58;103126.75;;;20.28;67.20
13709;BME280;54933;51.908;7.730;2023-02-13T08:10:23;103117.66;;;20.29;67.26
13709;BME280;54933;51.908;7.730;2023-02-13T08:13:08;103124.75;;;20.30;67.30
13709;BME280;54933;51.908;7.730;2023-02-13T08:15:34;103126.47;;;20.31;67.22
13709;BME280;54933;51.908;7.730;2023-02-13T08:17:59;103126.47;;;20.31;67.14
13709;BME280;54933;51.908;7.730;2023-02-13T08:20:24;103123.75;;;20.31;67.22
13709;BME280;54933;51.908;7.730;2023-02-13T08:22:49;103120.03;;;20.32;66.78
13709;BME280;54933;51.908;7.730;2023-02-13T08:25:15;103121.72;;;20.33;67.24
13709;BME280;54933;51.908;7.730;2023-02-13T08:27:41;103119.03;;;20.33;67.26
13709;BME280;54933;51.908;7.730;2023-02-13T08:30:07;103109.94;;;20.34;67.28
13709;BME280;54933;51.908;7.730;2023-02-13T08:32:33;103119.72;;;20.35;66.77
13709;BME280;54933;51.908;7.730;2023-02-13T08:34:58;103114.94;;;20.11;64.70
13709;BME280;54933;51.908;7.730;2023-02-13T08:37:24;103116.88;;;20.19;64.56
13709;BME280;54933;51.908;7.730;2023-02-13T08:39:49;103122.66;;;20.24;65.16
13709;BME280;54933;51.908;7.730;2023-02-13T08:42:14;103122.50;;;20.26;65.82
13709;BME280;54933;51.908;7.730;2023-02-13T08:44:40;103117.81;;;20.28;66.04
13709;BME280;54933;51.908;7.730;2023-02-13T08:47:06;103123.06;;;20.29;66.50
13709;BME280;54933;51.908;7.730;2023-02-13T08:49:32;103126.47;;;20.31;66.59
13709;BME280;54933;51.908;7.730;2023-02-13T08:51:58;103123.75;;;20.31;66.74
13709;BME280;54933;51.908;7.730;2023-02-13T08:54:24;103126.31;;;20.33;67.04
13709;BME280;54933;51.908;7.730;2023-02-13T08:56:49;103126.16;;;20.34;67.42
13709;BME280;54933;51.908;7.730;2023-02-13T08:59:15;103128.84;;;20.34;67.08
13709;BME280;54933;51.908;7.730;2023-02-13T09:01:40;103121.66;;;20.25;66.82
13709;BME280;54933;51.908;7.730;2023-02-13T09:04:05;103122.13;;;20.20;66.42
13709;BME280;54933;51.908;7.730;2023-02-13T09:06:31;103133.41;;;20.16;66.59
13709;BME280;54933;51.908;7.730;2023-02-13T09:08:56;103131.97;;;20.12;66.83
13709;BME280;54933;51.908;7.730;2023-02-13T09:11:21;103133.41;;;20.16;66.92
13709;BME280;54933;51.908;7.730;2023-02-13T09:13:48;103128.28;;;20.13;67.33
13709;BME280;54933;51.908;7.730;2023-02-13T09:16:14;103133.25;;;20.17;67.88
13709;BME280;54933;51.908;7.730;2023-02-13T09:18:39;103133.13;;;20.09;67.66
13709;BME280;54933;51.908;7.730;2023-02-13T09:21:06;103136.28;;;20.05;67.62
13709;BME280;54933;51.908;7.730;2023-02-13T09:23:34;103129.56;;;19.91;67.49
13709;BME280;54933;51.908;7.730;2023-02-13T09:26:01;103124.03;;;18.83;62.90
13709;BME280;54933;51.908;7.730;2023-02-13T09:28:31;103139.50;;;19.27;61.91
13709;BME280;54933;51.908;7.730;2023-02-13T09:30:56;103141.31;;;19.46;62.36
13709;BME280;54933;51.908;7.730;2023-02-13T09:33:22;103135.72;;;19.57;62.74
13709;BME280;54933;51.908;7.730;2023-02-13T09:35:47;103136.06;;;19.71;62.79
13709;BME280;54933;51.908;7.730;2023-02-13T09:38:12;103131.63;;;19.80;63.30
13709;BME280;54933;51.908;7.730;2023-02-13T09:40:45;103127.31;;;19.87;63.32
13709;BME280;54933;51.908;7.730;2023-02-13T09:43:17;103135.81;;;19.92;64.13
13709;BME280;54933;51.908;7.730;2023-02-13T09:45:46;103127.09;;;19.98;63.86
13709;BME280;54933;51.908;7.730;2023-02-13T09:48:25;103136.56;;;20.02;64.33
13709;BME280;54933;51.908;7.730;2023-02-13T09:50:52;103125.50;;;20.05;64.40
13709;BME280;54933;51.908;7.730;2023-02-13T09:53:23;103127.88;;;20.08;64.38
13709;BME280;54933;51.908;7.730;2023-02-13T09:56:05;103132.81;;;20.12;64.90
13709;BME280;54933;51.908;7.730;2023-02-13T09:58:40;103129.09;;;20.13;64.75
13709;BME280;54933;51.908;7.730;2023-02-13T10:06:36;103129.38;;;20.20;65.27
13709;BME280;54933;51.908;7.730;2023-02-13T10:09:32;103127.38;;;20.22;65.41
13709;BME280;54933;51.908;7.730;2023-02-13T10:12:28;103136.19;;;20.24;65.67
13709;BME280;54933;51.908;7.730;2023-02-13T10:17:51;103127.59;;;20.29;65.72
13709;BME280;54933;51.908;7.730;2023-02-13T10:23:20;103132.69;;;20.32;65.78
13709;BME280;54933;51.908;7.730;2023-02-13T10:25:55;103138.78;;;20.34;65.79
13709;BME280;54933;51.908;7.730;2023-02-13T10:28:32;103132.53;;;20.33;66.03
13709;BME280;54933;51.908;7.730;2023-02-13T10:31:05;103128.00;;;20.34;66.00
13709;BME280;54933;51.908;7.730;2023-02-13T10:33:51;103129.50;;;20.36;65.97
13709;BME280;54933;51.908;7.730;2023-02-13T10:36:26;103129.50;;;20.36;66.01
13709;BME280;54933;51.908;7.730;2023-02-13T10:41:51;103127.50;;;20.38;65.97
13709;BME280;54933;51.908;7.730;2023-02-13T10:44:35;103131.94;;;20.39;66.05
13709;BME280;54933;51.908;7.730;2023-02-13T10:47:36;103134.63;;;20.39;66.21
13709;BME280;54933;51.908;7.730;2023-02-13T10:50:19;103130.91;;;20.40;66.23
13709;BME280;54933;51.908;7.730;2023-02-13T11:03:27;103129.44;;;20.28;64.05
13709;BME280;54933;51.908;7.730;2023-02-13T11:05:54;103120.03;;;20.32;64.69
13709;BME280;54933;51.908;7.730;2023-02-13T11:08:23;103110.09;;;20.33;65.08
13709;BME280;54933;51.908;7.730;2023-02-13T11:10:49;103113.63;;;20.33;65.41
13709;BME280;54933;51.908;7.730;2023-02-13T11:13:23;103112.50;;;20.36;65.68
13709;BME280;54933;51.908;7.730;2023-02-13T11:16:04;103107.91;;;20.36;66.09
13709;BME280;54933;51.908;7.730;2023-02-13T11:18:32;103106.94;;;20.37;66.34
13709;BME280;54933;51.908;7.730;2023-02-13T11:21:13;103100.50;;;20.38;66.58
13709;BME280;54933;51.908;7.730;2023-02-13T11:23:44;103093.09;;;20.40;66.76
13709;BME280;54933;51.908;7.730;2023-02-13T11:26:35;103094.63;;;20.43;66.66
13709;BME280;54933;51.908;7.730;2023-02-13T11:29:16;103079.44;;;20.42;66.61
13709;BME280;54933;51.908;7.730;2023-02-13T11:31:42;103078.44;;;20.43;66.95
13709;BME280;54933;51.908;7.730;2023-02-13T11:34:37;103085.38;;;20.45;66.98
13709;BME280;54933;51.908;7.730;2023-02-13T11:39:38;103075.22;;;20.39;66.91
13709;BME280;54933;51.908;7.730;2023-02-13T11:42:12;103086.84;;;20.40;67.11
13709;BME280;54933;51.908;7.730;2023-02-13T11:44:40;103082.31;;;20.40;66.86
13709;BME280;54933;51.908;7.730;2023-02-13T11:47:06;103071.34;;;20.42;66.90
13709;BME280;54933;51.908;7.730;2023-02-13T11:49:38;103078.59;;;20.41;66.90
13709;BME280;54933;51.908;7.730;2023-02-13T11:52:05;103075.22;;;20.39;66.93
13709;BME280;54933;51.908;7.730;2023-02-13T11:57:37;103069.81;;;20.39;66.73
13709;BME280;54933;51.908;7.730;2023-02-13T12:00:31;103059.84;;;20.40;66.92
13709;BME280;54933;51.908;7.730;2023-02-13T12:03:02;103066.09;;;20.40;67.09
13709;BME280;54933;51.908;7.730;2023-02-13T12:08:38;103060.38;;;20.43;67.57
13709;BME280;54933;51.908;7.730;2023-02-13T12:11:22;103046.72;;;20.45;67.48
13709;BME280;54933;51.908;7.730;2023-02-13T12:13:49;103055.69;;;20.45;67.73
13709;BME280;54933;51.908;7.730;2023-02-13T12:16:29;103055.53;;;20.47;67.95
13709;BME280;54933;51.908;7.730;2023-02-13T12:18:58;103051.81;;;20.48;67.89
13709;BME280;54933;51.908;7.730;2023-02-13T12:21:59;103041.84;;;20.48;68.01
13709;BME280;54933;51.908;7.730;2023-02-13T12:27:29;103036.13;;;20.51;67.86
13709;BME280;54933;51.908;7.730;2023-02-13T12:38:00;103021.94;;;20.49;68.04
13709;BME280;54933;51.908;7.730;2023-02-13T12:45:52;103012.19;;;19.16;62.23
13709;BME280;54933;51.908;7.730;2023-02-13T12:53:43;103012.22;;;19.95;62.68
13709;BME280;54933;51.908;7.730;2023-02-13T12:57:06;103021.22;;;20.04;62.38
13709;BME280;54933;51.908;7.730;2023-02-13T12:59:19;103011.50;;;20.11;62.76
13709;BME280;54933;51.908;7.730;2023-02-13T13:10:23;103000.88;;;20.27;63.79
13709;BME280;54933;51.908;7.730;2023-02-13T13:21:15;102989.09;;;20.36;64.62
13709;BME280;54933;51.908;7.730;2023-02-13T13:26:26;102983.25;;;20.41;64.97
13709;BME280;54933;51.908;7.730;2023-02-13T13:28:58;102983.09;;;20.42;64.86
13709;BME280;54933;51.908;7.730;2023-02-13T13:31:25;102991.03;;;20.44;65.05
13709;BME280;54933;51.908;7.730;2023-02-13T13:33:57;102989.19;;;20.44;65.05
13709;BME280;54933;51.908;7.730;2023-02-13T13:42:21;102975.34;;;20.47;65.30
13709;BME280;54933;51.908;7.730;2023-02-13T13:44:53;102969.97;;;20.47;65.33
13709;BME280;54933;51.908;7.730;2023-02-13T13:50:24;102969.78;;;20.49;65.72
13709;BME280;54933;51.908;7.730;2023-02-13T13:53:17;102965.22;;;20.49;65.71
13709;BME280;54933;51.908;7.730;2023-02-13T13:58:41;102963.38;;;20.50;65.84
13709;BME280;54933;51.908;7.730;2023-02-13T14:01:19;102964.22;;;20.50;66.00
13709;BME280;54933;51.908;7.730;2023-02-13T14:11:51;102957.81;;;20.51;66.12
13709;BME280;54933;51.908;7.730;2023-02-13T14:16:51;102951.44;;;20.52;66.15
13709;BME280;54933;51.908;7.730;2023-02-13T14:19:29;102951.44;;;20.52;66.26
13709;BME280;54933;51.908;7.730;2023-02-13T14:24:54;102954.78;;;20.54;66.27
13709;BME280;54933;51.908;7.730;2023-02-13T14:27:22;102952.09;;;20.54;66.48
13709;BME280;54933;51.908;7.730;2023-02-13T14:29:49;102950.41;;;20.53;66.37
13709;BME280;54933;51.908;7.730;2023-02-13T14:32:33;102949.38;;;20.54;66.47
13709;BME280;54933;51.908;7.730;2023-02-13T14:35:22;102954.66;;;20.56;66.39
13709;BME280;54933;51.908;7.730;2023-02-13T14:37:50;102945.69;;;20.55;66.35
13709;BME280;54933;51.908;7.730;2023-02-13T14:42:45;102935.59;;;20.57;66.58
13709;BME280;54933;51.908;7.730;2023-02-13T14:45:17;102936.56;;;20.56;66.75
13709;BME280;54933;51.908;7.730;2023-02-13T14:47:51;102933.88;;;20.56;66.55
13709;BME280;54933;51.908;7.730;2023-02-13T14:50:26;102929.31;;;20.57;66.49
13709;BME280;54933;51.908;7.730;2023-02-13T14:52:53;102925.59;;;20.58;66.75
13709;BME280;54933;51.908;7.730;2023-02-13T14:55:41;102929.16;;;20.58;66.74
13709;BME280;54933;51.908;7.730;2023-02-13T14:58:18;102922.91;;;20.58;66.80
13709;BME280;54933;51.908;7.730;2023-02-13T15:03:36;102923.59;;;20.60;66.85
13709;BME280;54933;51.908;7.730;2023-02-13T15:06:12;102918.34;;;20.58;66.81